sensor_id;sensor_type;location;lat;lon;timestamp;P1;durP1;ratioP1;P2;durP2;ratioP2
3095;SDS011;1558;42.700;23.360;2023-12-20T00:00:40;191.20;;;141.03;;
3095;SDS011;1558;42.700;23.360;2023-12-20T00:03:08;182.10;;;142.43;;
3095;SDS011;1558;42.700;23.360;2023-12-20T00:05:37;191.67;;;150.17;;
3095;SDS011;1558;42.700;23.360;2023-12-20T00:08:07;209.60;;;160.13;;
3095;SDS011;1558;42.700;23.360;2023-12-20T00:10:36;234.57;;;182.47;;
3095;SDS011;1558;42.700;23.360;2023-12-20T00:13:07;242.23;;;193.43;;
3095;SDS011;1558;42.700;23.360;2023-12-20T00:15:36;250.63;;;194.00;;
3095;SDS011;1558;42.700;23.360;2023-12-20T00:18:04;224.00;;;171.53;;
3095;SDS011;1558;42.700;23.360;2023-12-20T00:20:32;201.20;;;152.10;;
3095;SDS011;1558;42.700;23.360;2023-12-20T00:23:01;208.80;;;159.50;;
3095;SDS011;1558;42.700;23.360;2023-12-20T00:25:30;193.77;;;151.00;;
3095;SDS011;1558;42.700;23.360;2023-12-20T00:27:59;185.30;;;139.60;;
3095;SDS011;1558;42.700;23.360;2023-12-20T00:30:29;181.20;;;135.40;;
3095;SDS011;1558;42.700;23.360;2023-12-20T00:32:57;177.20;;;133.67;;
3095;SDS011;1558;42.700;23.360;2023-12-20T00:35:25;177.50;;;134.10;;
3095;SDS011;1558;42.700;23.360;2023-12-20T00:37:53;212.93;;;153.87;;
3095;SDS011;1558;42.700;23.360;2023-12-20T00:40:22;207.43;;;153.40;;
3095;SDS011;1558;42.700;23.360;2023-12-20T00:42:50;265.57;;;189.47;;
3095;SDS011;1558;42.700;23.360;2023-12-20T00:45:18;272.93;;;196.60;;
3095;SDS011;1558;42.700;23.360;2023-12-20T00:47:48;258.20;;;182.63;;
3095;SDS011;1558;42.700;23.360;2023-12-20T00:50:17;272.70;;;188.40;;
3095;SDS011;1558;42.700;23.360;2023-12-20T00:52:45;290.80;;;191.07;;
3095;SDS011;1558;42.700;23.360;2023-12-20T00:55:14;272.40;;;181.93;;
3095;SDS011;1558;42.700;23.360;2023-12-20T00:57:43;276.03;;;181.73;;
3095;SDS011;1558;42.700;23.360;2023-12-20T01:00:12;263.03;;;164.93;;
3095;SDS011;1558;42.700;23.360;2023-12-20T01:02:41;255.70;;;166.50;;
3095;SDS011;1558;42.700;23.360;2023-12-20T01:05:10;299.10;;;161.77;;
3095;SDS011;1558;42.700;23.360;2023-12-20T01:07:39;354.20;;;156.77;;
3095;SDS011;1558;42.700;23.360;2023-12-20T01:10:08;250.57;;;143.43;;
3095;SDS011;1558;42.700;23.360;2023-12-20T01:12:36;235.90;;;144.13;;
3095;SDS011;1558;42.700;23.360;2023-12-20T01:15:05;286.87;;;156.13;;
3095;SDS011;1558;42.700;23.360;2023-12-20T01:17:33;194.57;;;134.50;;
3095;SDS011;1558;42.700;23.360;2023-12-20T01:20:02;198.70;;;138.47;;
3095;SDS011;1558;42.700;23.360;2023-12-20T01:22:32;189.47;;;136.90;;
3095;SDS011;1558;42.700;23.360;2023-12-20T01:25:02;207.73;;;143.70;;
3095;SDS011;1558;42.700;23.360;2023-12-20T01:27:33;205.23;;;140.37;;
3095;SDS011;1558;42.700;23.360;2023-12-20T01:30:01;216.43;;;148.47;;
3095;SDS011;1558;42.700;23.360;2023-12-20T01:32:29;205.70;;;143.40;;
3095;SDS011;1558;42.700;23.360;2023-12-20T01:34:57;196.03;;;139.47;;
3095;SDS011;1558;42.700;23.360;2023-12-20T01:37:28;199.57;;;141.30;;
3095;SDS011;1558;42.700;23.360;2023-12-20T01:39:58;210.37;;;148.93;;
3095;SDS011;1558;42.700;23.360;2023-12-20T01:42:26;193.77;;;136.13;;
3095;SDS011;1558;42.700;23.360;2023-12-20T01:44:55;190.47;;;123.90;;
3095;SDS011;1558;42.700;23.360;2023-12-20T01:47:23;213.00;;;142.23;;
3095;SDS011;1558;42.700;23.360;2023-12-20T01:49:53;215.60;;;137.73;;
3095;SDS011;1558;42.700;23.360;2023-12-20T01:52:23;268.30;;;134.70;;
3095;SDS011;1558;42.700;23.360;2023-12-20T01:54:53;240.13;;;133.87;;
3095;SDS011;1558;42.700;23.360;2023-12-20T01:57:29;177.23;;;120.23;;
3095;SDS011;1558;42.700;23.360;2023-12-20T01:59:57;194.63;;;129.13;;
3095;SDS011;1558;42.700;23.360;2023-12-20T02:02:26;181.33;;;127.93;;
3095;SDS011;1558;42.700;23.360;2023-12-20T02:04:56;187.53;;;123.33;;
3095;SDS011;1558;42.700;23.360;2023-12-20T02:07:25;192.10;;;126.27;;
3095;SDS011;1558;42.700;23.360;2023-12-20T02:09:54;203.97;;;137.03;;
3095;SDS011;1558;42.700;23.360;2023-12-20T02:12:23;218.13;;;129.90;;
3095;SDS011;1558;42.700;23.360;2023-12-20T02:14:53;224.27;;;143.13;;
3095;SDS011;1558;42.700;23.360;2023-12-20T02:17:21;263.00;;;141.17;;
3095;SDS011;1558;42.700;23.360;2023-12-20T02:19:50;238.97;;;139.97;;
3095;SDS011;1558;42.700;23.360;2023-12-20T02:22:20;357.80;;;151.83;;
3095;SDS011;1558;42.700;23.360;2023-12-20T02:24:48;439.07;;;152.57;;
3095;SDS011;1558;42.700;23.360;2023-12-20T02:27:17;398.37;;;148.47;;
3095;SDS011;1558;42.700;23.360;2023-12-20T02:29:47;223.30;;;122.53;;
3095;SDS011;1558;42.700;23.360;2023-12-20T02:32:15;235.50;;;119.50;;
3095;SDS011;1558;42.700;23.360;2023-12-20T02:34:45;372.00;;;145.87;;
3095;SDS011;1558;42.700;23.360;2023-12-20T02:37:14;353.63;;;138.03;;
3095;SDS011;1558;42.700;23.360;2023-12-20T02:39:44;268.53;;;114.80;;
3095;SDS011;1558;42.700;23.360;2023-12-20T02:42:12;346.60;;;132.47;;
3095;SDS011;1558;42.700;23.360;2023-12-20T02:44:40;176.10;;;108.40;;
3095;SDS011;1558;42.700;23.360;2023-12-20T02:47:09;247.93;;;114.57;;
3095;SDS011;1558;42.700;23.360;2023-12-20T02:49:37;321.63;;;134.80;;
3095;SDS011;1558;42.700;23.360;2023-12-20T02:52:05;226.17;;;109.70;;
3095;SDS011;1558;42.700;23.360;2023-12-20T02:54:34;262.63;;;120.13;;
3095;SDS011;1558;42.700;23.360;2023-12-20T02:57:03;227.63;;;109.57;;
3095;SDS011;1558;42.700;23.360;2023-12-20T02:59:32;299.83;;;111.27;;
3095;SDS011;1558;42.700;23.360;2023-12-20T03:02:00;166.23;;;98.33;;
3095;SDS011;1558;42.700;23.360;2023-12-20T03:04:28;171.03;;;103.83;;
3095;SDS011;1558;42.700;23.360;2023-12-20T03:06:56;189.20;;;101.53;;
3095;SDS011;1558;42.700;23.360;2023-12-20T03:09:25;180.10;;;100.60;;
3095;SDS011;1558;42.700;23.360;2023-12-20T03:11:56;179.83;;;106.13;;
3095;SDS011;1558;42.700;23.360;2023-12-20T03:14:25;192.80;;;107.33;;
3095;SDS011;1558;42.700;23.360;2023-12-20T03:16:53;172.57;;;101.77;;
3095;SDS011;1558;42.700;23.360;2023-12-20T03:19:25;184.97;;;99.77;;
3095;SDS011;1558;42.700;23.360;2023-12-20T03:21:53;175.77;;;95.00;;
3095;SDS011;1558;42.700;23.360;2023-12-20T03:24:22;196.33;;;97.70;;
3095;SDS011;1558;42.700;23.360;2023-12-20T03:26:50;177.03;;;95.97;;
3095;SDS011;1558;42.700;23.360;2023-12-20T03:29:18;150.43;;;85.77;;
3095;SDS011;1558;42.700;23.360;2023-12-20T03:31:48;223.33;;;96.87;;
3095;SDS011;1558;42.700;23.360;2023-12-20T03:34:16;156.47;;;79.90;;
3095;SDS011;1558;42.700;23.360;2023-12-20T03:36:44;166.07;;;79.00;;
3095;SDS011;1558;42.700;23.360;2023-12-20T03:39:14;233.87;;;85.83;;
3095;SDS011;1558;42.700;23.360;2023-12-20T03:41:42;156.73;;;73.83;;
3095;SDS011;1558;42.700;23.360;2023-12-20T03:44:10;162.83;;;80.43;;
3095;SDS011;1558;42.700;23.360;2023-12-20T03:46:38;190.90;;;84.87;;
3095;SDS011;1558;42.700;23.360;2023-12-20T03:49:08;213.63;;;103.87;;
3095;SDS011;1558;42.700;23.360;2023-12-20T03:51:36;210.93;;;111.53;;
3095;SDS011;1558;42.700;23.360;2023-12-20T03:54:04;205.27;;;106.00;;
3095;SDS011;1558;42.700;23.360;2023-12-20T03:56:33;224.50;;;114.23;;
3095;SDS011;1558;42.700;23.360;2023-12-20T03:59:01;218.80;;;113.53;;
3095;SDS011;1558;42.700;23.360;2023-12-20T04:01:29;159.63;;;96.37;;
3095;SDS011;1558;42.700;23.360;2023-12-20T04:03:57;158.80;;;99.60;;
3095;SDS011;1558;42.700;23.360;2023-12-20T04:06:27;148.30;;;95.60;;
3095;SDS011;1558;42.700;23.360;2023-12-20T04:08:55;157.17;;;94.90;;
3095;SDS011;1558;42.700;23.360;2023-12-20T04:11:24;156.40;;;91.97;;
3095;SDS011;1558;42.700;23.360;2023-12-20T04:13:52;179.57;;;89.90;;
3095;SDS011;1558;42.700;23.360;2023-12-20T04:16:20;129.37;;;81.90;;
3095;SDS011;1558;42.700;23.360;2023-12-20T04:18:48;125.50;;;80.63;;
3095;SDS011;1558;42.700;23.360;2023-12-20T04:21:16;162.17;;;87.80;;
3095;SDS011;1558;42.700;23.360;2023-12-20T04:23:46;140.37;;;81.90;;
3095;SDS011;1558;42.700;23.360;2023-12-20T04:26:14;158.10;;;85.10;;
3095;SDS011;1558;42.700;23.360;2023-12-20T04:28:44;152.30;;;84.17;;
3095;SDS011;1558;42.700;23.360;2023-12-20T04:31:12;188.03;;;89.27;;
3095;SDS011;1558;42.700;23.360;2023-12-20T04:33:40;255.23;;;99.50;;
3095;SDS011;1558;42.700;23.360;2023-12-20T04:36:09;182.07;;;87.10;;
3095;SDS011;1558;42.700;23.360;2023-12-20T04:38:37;218.00;;;104.10;;
3095;SDS011;1558;42.700;23.360;2023-12-20T04:41:06;191.07;;;93.53;;
3095;SDS011;1558;42.700;23.360;2023-12-20T04:43:35;266.80;;;110.47;;
3095;SDS011;1558;42.700;23.360;2023-12-20T04:46:03;204.97;;;96.33;;
3095;SDS011;1558;42.700;23.360;2023-12-20T04:48:32;195.47;;;90.77;;
3095;SDS011;1558;42.700;23.360;2023-12-20T04:51:00;265.67;;;99.67;;
3095;SDS011;1558;42.700;23.360;2023-12-20T04:53:28;231.37;;;96.57;;
3095;SDS011;1558;42.700;23.360;2023-12-20T04:55:56;233.27;;;102.13;;
3095;SDS011;1558;42.700;23.360;2023-12-20T04:58:26;231.80;;;104.10;;
3095;SDS011;1558;42.700;23.360;2023-12-20T05:00:54;186.33;;;88.57;;
3095;SDS011;1558;42.700;23.360;2023-12-20T05:03:23;163.63;;;80.07;;
3095;SDS011;1558;42.700;23.360;2023-12-20T05:05:51;172.03;;;84.83;;
3095;SDS011;1558;42.700;23.360;2023-12-20T05:08:19;211.07;;;88.20;;
3095;SDS011;1558;42.700;23.360;2023-12-20T05:10:48;284.20;;;102.57;;
3095;SDS011;1558;42.700;23.360;2023-12-20T05:13:16;211.73;;;85.07;;
3095;SDS011;1558;42.700;23.360;2023-12-20T05:15:46;176.60;;;71.50;;
3095;SDS011;1558;42.700;23.360;2023-12-20T05:18:14;174.03;;;68.13;;
3095;SDS011;1558;42.700;23.360;2023-12-20T05:20:42;205.20;;;69.30;;
3095;SDS011;1558;42.700;23.360;2023-12-20T05:23:10;283.63;;;83.13;;
3095;SDS011;1558;42.700;23.360;2023-12-20T05:25:40;222.97;;;78.03;;
3095;SDS011;1558;42.700;23.360;2023-12-20T05:28:08;148.80;;;58.53;;
3095;SDS011;1558;42.700;23.360;2023-12-20T05:30:39;143.77;;;61.63;;
3095;SDS011;1558;42.700;23.360;2023-12-20T05:33:08;246.10;;;77.23;;
3095;SDS011;1558;42.700;23.360;2023-12-20T05:35:37;133.77;;;64.63;;
3095;SDS011;1558;42.700;23.360;2023-12-20T05:38:05;145.70;;;58.03;;
3095;SDS011;1558;42.700;23.360;2023-12-20T05:40:34;185.97;;;69.37;;
3095;SDS011;1558;42.700;23.360;2023-12-20T05:43:02;150.47;;;62.63;;
3095;SDS011;1558;42.700;23.360;2023-12-20T05:45:30;103.27;;;55.33;;
3095;SDS011;1558;42.700;23.360;2023-12-20T05:47:59;172.33;;;67.63;;
3095;SDS011;1558;42.700;23.360;2023-12-20T05:50:29;152.20;;;64.30;;
3095;SDS011;1558;42.700;23.360;2023-12-20T05:52:57;116.37;;;60.77;;
3095;SDS011;1558;42.700;23.360;2023-12-20T05:55:25;136.47;;;63.27;;
3095;SDS011;1558;42.700;23.360;2023-12-20T05:57:53;144.73;;;60.40;;
3095;SDS011;1558;42.700;23.360;2023-12-20T06:00:21;156.97;;;59.27;;
3095;SDS011;1558;42.700;23.360;2023-12-20T06:02:52;112.23;;;57.90;;
3095;SDS011;1558;42.700;23.360;2023-12-20T06:05:20;142.30;;;54.27;;
3095;SDS011;1558;42.700;23.360;2023-12-20T06:07:50;168.00;;;56.63;;
3095;SDS011;1558;42.700;23.360;2023-12-20T06:10:18;130.70;;;49.43;;
3095;SDS011;1558;42.700;23.360;2023-12-20T06:12:48;164.97;;;49.20;;
3095;SDS011;1558;42.700;23.360;2023-12-20T06:15:17;155.20;;;53.90;;
3095;SDS011;1558;42.700;23.360;2023-12-20T06:17:46;176.17;;;57.73;;
3095;SDS011;1558;42.700;23.360;2023-12-20T06:20:15;129.37;;;49.60;;
3095;SDS011;1558;42.700;23.360;2023-12-20T06:22:43;136.10;;;49.60;;
3095;SDS011;1558;42.700;23.360;2023-12-20T06:25:13;127.07;;;46.10;;
3095;SDS011;1558;42.700;23.360;2023-12-20T06:27:41;121.93;;;48.47;;
3095;SDS011;1558;42.700;23.360;2023-12-20T06:30:12;99.90;;;46.40;;
3095;SDS011;1558;42.700;23.360;2023-12-20T06:32:40;112.23;;;51.43;;
3095;SDS011;1558;42.700;23.360;2023-12-20T06:35:09;159.77;;;71.93;;
3095;SDS011;1558;42.700;23.360;2023-12-20T06:37:37;111.13;;;62.73;;
3095;SDS011;1558;42.700;23.360;2023-12-20T06:40:09;117.70;;;68.13;;
3095;SDS011;1558;42.700;23.360;2023-12-20T06:42:45;120.53;;;73.27;;
3095;SDS011;1558;42.700;23.360;2023-12-20T06:45:30;132.10;;;71.53;;
3095;SDS011;1558;42.700;23.360;2023-12-20T06:47:58;101.27;;;65.30;;
3095;SDS011;1558;42.700;23.360;2023-12-20T06:50:27;114.10;;;67.93;;
3095;SDS011;1558;42.700;23.360;2023-12-20T06:52:55;105.03;;;64.80;;
3095;SDS011;1558;42.700;23.360;2023-12-20T06:55:23;124.70;;;69.53;;
3095;SDS011;1558;42.700;23.360;2023-12-20T06:57:53;115.37;;;65.17;;
3095;SDS011;1558;42.700;23.360;2023-12-20T07:00:22;108.23;;;65.20;;
3095;SDS011;1558;42.700;23.360;2023-12-20T07:02:50;123.77;;;72.17;;
3095;SDS011;1558;42.700;23.360;2023-12-20T07:05:18;133.97;;;77.60;;
3095;SDS011;1558;42.700;23.360;2023-12-20T07:07:49;106.60;;;67.47;;
3095;SDS011;1558;42.700;23.360;2023-12-20T07:10:17;111.03;;;65.07;;
3095;SDS011;1558;42.700;23.360;2023-12-20T07:12:46;97.67;;;59.07;;
3095;SDS011;1558;42.700;23.360;2023-12-20T07:15:17;79.60;;;56.33;;
3095;SDS011;1558;42.700;23.360;2023-12-20T07:17:46;86.03;;;55.90;;
3095;SDS011;1558;42.700;23.360;2023-12-20T07:20:15;95.40;;;56.53;;
3095;SDS011;1558;42.700;23.360;2023-12-20T07:22:43;102.23;;;58.17;;
3095;SDS011;1558;42.700;23.360;2023-12-20T07:25:13;83.23;;;51.40;;
3095;SDS011;1558;42.700;23.360;2023-12-20T07:27:43;78.13;;;50.23;;
3095;SDS011;1558;42.700;23.360;2023-12-20T07:30:11;93.80;;;50.57;;
3095;SDS011;1558;42.700;23.360;2023-12-20T07:32:41;84.17;;;51.93;;
3095;SDS011;1558;42.700;23.360;2023-12-20T07:35:10;76.73;;;47.97;;
3095;SDS011;1558;42.700;23.360;2023-12-20T07:37:38;71.93;;;48.07;;
3095;SDS011;1558;42.700;23.360;2023-12-20T07:40:09;73.30;;;49.43;;
3095;SDS011;1558;42.700;23.360;2023-12-20T07:42:38;73.20;;;48.77;;
3095;SDS011;1558;42.700;23.360;2023-12-20T07:45:06;87.50;;;53.03;;
3095;SDS011;1558;42.700;23.360;2023-12-20T07:47:35;75.00;;;50.23;;
3095;SDS011;1558;42.700;23.360;2023-12-20T07:50:06;76.60;;;47.77;;
3095;SDS011;1558;42.700;23.360;2023-12-20T07:52:35;74.57;;;45.70;;
3095;SDS011;1558;42.700;23.360;2023-12-20T07:55:03;83.07;;;49.10;;
3095;SDS011;1558;42.700;23.360;2023-12-20T07:57:32;71.73;;;42.57;;
3095;SDS011;1558;42.700;23.360;2023-12-20T08:00:00;81.93;;;41.53;;
3095;SDS011;1558;42.700;23.360;2023-12-20T08:02:30;73.43;;;40.30;;
3095;SDS011;1558;42.700;23.360;2023-12-20T08:05:01;84.93;;;42.80;;
3095;SDS011;1558;42.700;23.360;2023-12-20T08:07:30;68.93;;;43.73;;
3095;SDS011;1558;42.700;23.360;2023-12-20T08:09:59;75.03;;;41.63;;
3095;SDS011;1558;42.700;23.360;2023-12-20T08:12:27;71.57;;;39.90;;
3095;SDS011;1558;42.700;23.360;2023-12-20T08:14:55;76.83;;;42.93;;
3095;SDS011;1558;42.700;23.360;2023-12-20T08:17:24;72.13;;;42.03;;
3095;SDS011;1558;42.700;23.360;2023-12-20T08:19:53;76.77;;;44.73;;
3095;SDS011;1558;42.700;23.360;2023-12-20T08:22:21;91.87;;;46.40;;
3095;SDS011;1558;42.700;23.360;2023-12-20T08:24:51;95.17;;;50.83;;
3095;SDS011;1558;42.700;23.360;2023-12-20T08:27:19;92.87;;;47.33;;
3095;SDS011;1558;42.700;23.360;2023-12-20T08:29:48;76.87;;;46.53;;
3095;SDS011;1558;42.700;23.360;2023-12-20T08:32:17;87.00;;;48.43;;
3095;SDS011;1558;42.700;23.360;2023-12-20T08:34:45;101.60;;;48.77;;
3095;SDS011;1558;42.700;23.360;2023-12-20T08:37:14;94.73;;;49.73;;
3095;SDS011;1558;42.700;23.360;2023-12-20T08:39:42;88.13;;;47.67;;
3095;SDS011;1558;42.700;23.360;2023-12-20T08:42:14;103.00;;;49.27;;
3095;SDS011;1558;42.700;23.360;2023-12-20T08:44:42;102.77;;;52.80;;
3095;SDS011;1558;42.700;23.360;2023-12-20T08:47:12;105.40;;;54.27;;
3095;SDS011;1558;42.700;23.360;2023-12-20T08:49:42;102.50;;;52.40;;
3095;SDS011;1558;42.700;23.360;2023-12-20T08:52:11;100.13;;;51.53;;
3095;SDS011;1558;42.700;23.360;2023-12-20T08:54:39;88.77;;;49.77;;
3095;SDS011;1558;42.700;23.360;2023-12-20T08:57:09;94.00;;;50.00;;
3095;SDS011;1558;42.700;23.360;2023-12-20T08:59:39;91.03;;;53.67;;
3095;SDS011;1558;42.700;23.360;2023-12-20T09:02:07;96.00;;;51.00;;
3095;SDS011;1558;42.700;23.360;2023-12-20T09:04:35;99.73;;;56.37;;
3095;SDS011;1558;42.700;23.360;2023-12-20T09:07:03;100.43;;;52.67;;
3095;SDS011;1558;42.700;23.360;2023-12-20T09:09:32;113.57;;;62.27;;
3095;SDS011;1558;42.700;23.360;2023-12-20T09:12:00;101.03;;;55.87;;
3095;SDS011;1558;42.700;23.360;2023-12-20T09:14:28;95.03;;;50.83;;
3095;SDS011;1558;42.700;23.360;2023-12-20T09:16:58;88.20;;;50.20;;
3095;SDS011;1558;42.700;23.360;2023-12-20T09:19:27;85.67;;;47.60;;
3095;SDS011;1558;42.700;23.360;2023-12-20T09:21:56;96.77;;;49.37;;
3095;SDS011;1558;42.700;23.360;2023-12-20T09:24:24;90.83;;;49.77;;
3095;SDS011;1558;42.700;23.360;2023-12-20T09:26:52;103.27;;;55.83;;
3095;SDS011;1558;42.700;23.360;2023-12-20T09:29:22;107.80;;;57.63;;
3095;SDS011;1558;42.700;23.360;2023-12-20T09:31:51;106.03;;;59.87;;
3095;SDS011;1558;42.700;23.360;2023-12-20T09:34:21;113.37;;;62.60;;
3095;SDS011;1558;42.700;23.360;2023-12-20T09:36:49;115.50;;;58.87;;
3095;SDS011;1558;42.700;23.360;2023-12-20T09:39:18;106.70;;;57.60;;
3095;SDS011;1558;42.700;23.360;2023-12-20T09:41:49;118.07;;;58.30;;
3095;SDS011;1558;42.700;23.360;2023-12-20T09:44:27;95.17;;;50.00;;
3095;SDS011;1558;42.700;23.360;2023-12-20T09:46:56;93.87;;;48.40;;
3095;SDS011;1558;42.700;23.360;2023-12-20T09:49:27;95.10;;;48.63;;
3095;SDS011;1558;42.700;23.360;2023-12-20T09:51:56;90.97;;;49.37;;
3095;SDS011;1558;42.700;23.360;2023-12-20T09:54:24;85.40;;;44.37;;
3095;SDS011;1558;42.700;23.360;2023-12-20T09:56:54;85.90;;;43.80;;
3095;SDS011;1558;42.700;23.360;2023-12-20T09:59:22;82.33;;;43.43;;
3095;SDS011;1558;42.700;23.360;2023-12-20T10:01:50;74.53;;;41.40;;
3095;SDS011;1558;42.700;23.360;2023-12-20T10:04:24;77.87;;;44.20;;
3095;SDS011;1558;42.700;23.360;2023-12-20T10:07:01;81.20;;;45.53;;
3095;SDS011;1558;42.700;23.360;2023-12-20T10:09:32;80.33;;;43.03;;
3095;SDS011;1558;42.700;23.360;2023-12-20T10:12:02;76.07;;;45.87;;
3095;SDS011;1558;42.700;23.360;2023-12-20T10:14:32;79.60;;;45.10;;
3095;SDS011;1558;42.700;23.360;2023-12-20T10:17:03;76.13;;;45.20;;
3095;SDS011;1558;42.700;23.360;2023-12-20T10:19:32;74.90;;;46.77;;
3095;SDS011;1558;42.700;23.360;2023-12-20T10:22:03;76.33;;;43.77;;
3095;SDS011;1558;42.700;23.360;2023-12-20T10:24:32;85.63;;;49.47;;
3095;SDS011;1558;42.700;23.360;2023-12-20T10:27:02;87.30;;;48.97;;
3095;SDS011;1558;42.700;23.360;2023-12-20T10:29:33;84.37;;;48.87;;
3095;SDS011;1558;42.700;23.360;2023-12-20T10:34:59;84.27;;;51.83;;
3095;SDS011;1558;42.700;23.360;2023-12-20T10:37:29;74.57;;;48.00;;
3095;SDS011;1558;42.700;23.360;2023-12-20T10:39:58;75.90;;;47.67;;
3095;SDS011;1558;42.700;23.360;2023-12-20T10:42:28;82.37;;;48.80;;
3095;SDS011;1558;42.700;23.360;2023-12-20T10:44:58;82.13;;;49.40;;
3095;SDS011;1558;42.700;23.360;2023-12-20T10:47:27;82.37;;;51.03;;
3095;SDS011;1558;42.700;23.360;2023-12-20T10:49:59;88.00;;;52.80;;
3095;SDS011;1558;42.700;23.360;2023-12-20T10:52:30;89.10;;;55.20;;
3095;SDS011;1558;42.700;23.360;2023-12-20T10:55:00;104.27;;;62.27;;
3095;SDS011;1558;42.700;23.360;2023-12-20T10:57:28;93.97;;;56.63;;
3095;SDS011;1558;42.700;23.360;2023-12-20T10:59:58;101.73;;;56.80;;
3095;SDS011;1558;42.700;23.360;2023-12-20T11:02:31;91.33;;;57.50;;
3095;SDS011;1558;42.700;23.360;2023-12-20T11:05:03;90.27;;;56.97;;
3095;SDS011;1558;42.700;23.360;2023-12-20T11:07:39;101.37;;;59.77;;
3095;SDS011;1558;42.700;23.360;2023-12-20T11:10:15;89.97;;;56.83;;
3095;SDS011;1558;42.700;23.360;2023-12-20T11:12:49;90.30;;;56.53;;
3095;SDS011;1558;42.700;23.360;2023-12-20T11:15:20;95.83;;;61.03;;
3095;SDS011;1558;42.700;23.360;2023-12-20T11:17:54;93.77;;;61.73;;
3095;SDS011;1558;42.700;23.360;2023-12-20T11:20:24;103.33;;;64.17;;
3095;SDS011;1558;42.700;23.360;2023-12-20T11:23:04;109.93;;;75.90;;
3095;SDS011;1558;42.700;23.360;2023-12-20T11:25:45;111.17;;;74.23;;
3095;SDS011;1558;42.700;23.360;2023-12-20T11:28:16;110.57;;;73.03;;
3095;SDS011;1558;42.700;23.360;2023-12-20T11:30:50;108.80;;;71.27;;
3095;SDS011;1558;42.700;23.360;2023-12-20T11:33:22;92.37;;;64.53;;
3095;SDS011;1558;42.700;23.360;2023-12-20T11:35:55;95.17;;;64.70;;
3095;SDS011;1558;42.700;23.360;2023-12-20T11:38:26;98.30;;;70.43;;
3095;SDS011;1558;42.700;23.360;2023-12-20T11:40:54;103.57;;;68.77;;
3095;SDS011;1558;42.700;23.360;2023-12-20T11:43:29;101.03;;;68.83;;
3095;SDS011;1558;42.700;23.360;2023-12-20T11:46:02;96.57;;;66.73;;
3095;SDS011;1558;42.700;23.360;2023-12-20T11:48:33;89.50;;;61.30;;
3095;SDS011;1558;42.700;23.360;2023-12-20T11:51:02;91.60;;;62.63;;
3095;SDS011;1558;42.700;23.360;2023-12-20T11:53:40;88.33;;;60.03;;
3095;SDS011;1558;42.700;23.360;2023-12-20T11:56:09;88.30;;;58.13;;
3095;SDS011;1558;42.700;23.360;2023-12-20T11:58:39;84.60;;;55.47;;
3095;SDS011;1558;42.700;23.360;2023-12-20T12:01:07;93.23;;;62.30;;
3095;SDS011;1558;42.700;23.360;2023-12-20T12:03:36;96.60;;;57.63;;
3095;SDS011;1558;42.700;23.360;2023-12-20T12:06:04;104.67;;;66.30;;
3095;SDS011;1558;42.700;23.360;2023-12-20T12:08:35;118.93;;;58.50;;
3095;SDS011;1558;42.700;23.360;2023-12-20T12:11:04;112.37;;;62.50;;
3095;SDS011;1558;42.700;23.360;2023-12-20T12:13:33;107.73;;;65.27;;
3095;SDS011;1558;42.700;23.360;2023-12-20T12:16:02;110.17;;;63.63;;
3095;SDS011;1558;42.700;23.360;2023-12-20T12:18:30;125.27;;;67.17;;
3095;SDS011;1558;42.700;23.360;2023-12-20T12:21:02;119.33;;;63.63;;
3095;SDS011;1558;42.700;23.360;2023-12-20T12:23:38;116.37;;;68.90;;
3095;SDS011;1558;42.700;23.360;2023-12-20T12:26:08;115.17;;;65.20;;
3095;SDS011;1558;42.700;23.360;2023-12-20T12:28:37;106.80;;;61.57;;
3095;SDS011;1558;42.700;23.360;2023-12-20T12:31:13;100.40;;;61.03;;
3095;SDS011;1558;42.700;23.360;2023-12-20T12:33:43;109.30;;;61.53;;
3095;SDS011;1558;42.700;23.360;2023-12-20T12:36:12;103.00;;;59.07;;
3095;SDS011;1558;42.700;23.360;2023-12-20T12:38:42;199.30;;;69.47;;
3095;SDS011;1558;42.700;23.360;2023-12-20T12:41:13;153.53;;;65.33;;
3095;SDS011;1558;42.700;23.360;2023-12-20T12:43:43;113.10;;;63.47;;
3095;SDS011;1558;42.700;23.360;2023-12-20T12:46:11;112.00;;;61.77;;
3095;SDS011;1558;42.700;23.360;2023-12-20T12:48:39;121.23;;;67.37;;
3095;SDS011;1558;42.700;23.360;2023-12-20T12:51:12;114.30;;;64.53;;
3095;SDS011;1558;42.700;23.360;2023-12-20T12:53:40;99.33;;;55.80;;
3095;SDS011;1558;42.700;23.360;2023-12-20T12:56:08;92.87;;;52.77;;
3095;SDS011;1558;42.700;23.360;2023-12-20T12:58:38;78.80;;;46.10;;
3095;SDS011;1558;42.700;23.360;2023-12-20T13:01:06;72.53;;;45.90;;
3095;SDS011;1558;42.700;23.360;2023-12-20T13:03:35;83.13;;;45.87;;
3095;SDS011;1558;42.700;23.360;2023-12-20T13:06:04;79.30;;;44.60;;
3095;SDS011;1558;42.700;23.360;2023-12-20T13:08:35;77.60;;;47.43;;
3095;SDS011;1558;42.700;23.360;2023-12-20T13:11:03;87.10;;;50.80;;
3095;SDS011;1558;42.700;23.360;2023-12-20T13:13:31;80.73;;;50.53;;
3095;SDS011;1558;42.700;23.360;2023-12-20T13:16:01;74.47;;;48.23;;
3095;SDS011;1558;42.700;23.360;2023-12-20T13:18:30;77.53;;;47.60;;
3095;SDS011;1558;42.700;23.360;2023-12-20T13:20:58;90.93;;;50.63;;
3095;SDS011;1558;42.700;23.360;2023-12-20T13:23:27;86.43;;;47.97;;
3095;SDS011;1558;42.700;23.360;2023-12-20T13:25:55;93.57;;;49.77;;
3095;SDS011;1558;42.700;23.360;2023-12-20T13:28:24;87.60;;;50.40;;
3095;SDS011;1558;42.700;23.360;2023-12-20T13:30:52;140.73;;;52.80;;
3095;SDS011;1558;42.700;23.360;2023-12-20T13:33:22;197.20;;;52.70;;
3095;SDS011;1558;42.700;23.360;2023-12-20T13:35:50;134.20;;;53.83;;
3095;SDS011;1558;42.700;23.360;2023-12-20T13:38:18;100.90;;;50.00;;
3095;SDS011;1558;42.700;23.360;2023-12-20T13:40:47;124.67;;;51.53;;
3095;SDS011;1558;42.700;23.360;2023-12-20T13:43:15;140.57;;;53.47;;
3095;SDS011;1558;42.700;23.360;2023-12-20T13:45:48;177.23;;;52.60;;
3095;SDS011;1558;42.700;23.360;2023-12-20T13:48:16;117.07;;;55.27;;
3095;SDS011;1558;42.700;23.360;2023-12-20T13:50:47;258.57;;;54.67;;
3095;SDS011;1558;42.700;23.360;2023-12-20T13:53:15;131.90;;;48.13;;
3095;SDS011;1558;42.700;23.360;2023-12-20T13:55:43;98.47;;;48.43;;
3095;SDS011;1558;42.700;23.360;2023-12-20T13:58:11;93.23;;;50.57;;
3095;SDS011;1558;42.700;23.360;2023-12-20T14:00:40;123.13;;;49.93;;
3095;SDS011;1558;42.700;23.360;2023-12-20T14:03:09;96.90;;;47.70;;
3095;SDS011;1558;42.700;23.360;2023-12-20T14:05:37;114.97;;;51.07;;
3095;SDS011;1558;42.700;23.360;2023-12-20T14:08:07;102.13;;;48.20;;
3095;SDS011;1558;42.700;23.360;2023-12-20T14:10:36;103.57;;;50.47;;
3095;SDS011;1558;42.700;23.360;2023-12-20T14:13:05;102.87;;;52.13;;
3095;SDS011;1558;42.700;23.360;2023-12-20T14:15:34;103.03;;;53.70;;
3095;SDS011;1558;42.700;23.360;2023-12-20T14:18:04;110.80;;;56.30;;
3095;SDS011;1558;42.700;23.360;2023-12-20T14:20:34;115.33;;;54.83;;
3095;SDS011;1558;42.700;23.360;2023-12-20T14:23:03;112.77;;;57.83;;
3095;SDS011;1558;42.700;23.360;2023-12-20T14:25:33;96.67;;;53.27;;
3095;SDS011;1558;42.700;23.360;2023-12-20T14:28:17;103.53;;;53.80;;
3095;SDS011;1558;42.700;23.360;2023-12-20T14:30:45;95.53;;;51.97;;
3095;SDS011;1558;42.700;23.360;2023-12-20T14:33:15;116.80;;;58.40;;
3095;SDS011;1558;42.700;23.360;2023-12-20T14:35:47;111.43;;;56.67;;
3095;SDS011;1558;42.700;23.360;2023-12-20T14:38:15;109.73;;;54.50;;